Time;durP1;ratioP1;P1;durP2;ratioP2;P2;SDS_P1;SDS_P2;PMS_P1;PMS_P2;Temp;Humidity;BMP_temperature;BMP_pressure;BME280_temperature;BME280_humidity;BME280_pressure;Samples;Min_cycle;Max_cycle;Signal;HPM_P1;HPM_P2
2023/02/25 00:01:23;;;;;;;16.40;14.90;;;3.90;83.90;;;;;;4996578;28;20181;-90
2023/02/25 00:03:56;;;;;;;16.10;14.83;;;3.80;84.00;;;;;;4996832;28;20211;-90
2023/02/25 00:06:25;;;;;;;16.53;15.13;;;3.80;84.50;;;;;;4996777;28;20296;-90
2023/02/25 00:08:54;;;;;;;14.73;13.33;;;3.90;84.70;;;;;;4996761;28;20263;-90
2023/02/25 00:11:26;;;;;;;16.93;15.33;;;3.90;84.70;;;;;;5015040;28;20226;-89
2023/02/25 00:14:04;;;;;;;16.23;14.87;;;3.90;84.80;;;;;;4997343;28;20187;-90
2023/02/25 00:16:31;;;;;;;17.20;15.83;;;3.90;84.70;;;;;;5020014;23;20256;-90
2023/02/25 00:18:57;;;;;;;18.13;16.83;;;3.80;85.10;;;;;;4993156;28;20278;-90
2023/02/25 00:21:23;;;;;;;17.87;16.70;;;3.80;84.90;;;;;;4993362;28;20699;-90
2023/02/25 00:23:50;;;;;;;16.50;15.03;;;3.60;85.20;;;;;;4993325;28;20228;-90
2023/02/25 00:26:17;;;;;;;19.43;18.07;;;3.60;85.30;;;;;;4977427;28;20316;-91
2023/02/25 00:28:43;;;;;;;17.83;16.17;;;3.50;85.40;;;;;;4993199;28;20215;-90
2023/02/25 00:31:14;;;;;;;19.20;17.53;;;3.40;85.70;;;;;;4993180;28;20182;-90
2023/02/25 00:33:41;;;;;;;17.77;16.13;;;3.50;85.70;;;;;;4992934;28;20178;-89
2023/02/25 00:36:13;;;;;;;18.43;17.00;;;3.50;85.80;;;;;;4993062;28;20615;-90
2023/02/25 00:38:39;;;;;;;18.70;17.30;;;3.50;85.90;;;;;;4993684;28;20184;-90
2023/02/25 00:41:12;;;;;;;18.50;17.10;;;3.50;86.00;;;;;;4992963;28;20178;-90
2023/02/25 00:43:46;;;;;;;20.57;18.73;;;3.50;85.90;;;;;;4993537;28;20268;-90
2023/02/25 00:46:15;;;;;;;17.77;16.33;;;3.50;85.80;;;;;;4992795;28;20200;-90
2023/02/25 00:48:41;;;;;;;18.07;16.53;;;3.50;85.90;;;;;;4993136;28;20176;-90
2023/02/25 00:51:15;;;;;;;15.43;14.30;;;3.60;86.00;;;;;;4993283;28;20242;-89
2023/02/25 00:53:41;;;;;;;14.77;13.53;;;3.60;85.40;;;;;;4992924;28;20279;-90
2023/02/25 00:56:08;;;;;;;14.80;13.53;;;3.60;84.80;;;;;;4993044;28;20240;-90
2023/02/25 00:58:37;;;;;;;14.93;13.60;;;3.60;84.50;;;;;;4992616;28;20186;-90
2023/02/25 01:01:05;;;;;;;13.20;12.20;;;3.60;83.90;;;;;;4993971;28;20176;-90
2023/02/25 01:03:32;;;;;;;13.50;12.70;;;3.60;83.60;;;;;;4992516;28;20210;-90
2023/02/25 01:05:57;;;;;;;13.47;12.67;;;3.60;83.40;;;;;;4992785;28;20346;-90
2023/02/25 01:08:23;;;;;;;12.80;11.93;;;3.60;82.70;;;;;;4994680;28;20697;-89
2023/02/25 01:10:49;;;;;;;13.30;12.30;;;3.50;82.00;;;;;;4997021;28;20197;-89
2023/02/25 01:13:15;;;;;;;13.70;12.80;;;3.60;82.00;;;;;;4996825;28;20181;-89
2023/02/25 01:15:41;;;;;;;12.70;11.90;;;3.60;81.20;;;;;;4996288;28;20255;-89
2023/02/25 01:18:06;;;;;;;13.20;12.40;;;3.60;81.20;;;;;;4996542;28;20224;-90
2023/02/25 01:20:37;;;;;;;12.43;11.50;;;3.60;81.00;;;;;;4996528;28;20183;-89
2023/02/25 01:26:35;;;;;;;13.60;12.57;;;3.60;80.90;;;;;;5000783;28;20219;-91
2023/02/25 01:29:04;;;;;;;14.10;13.10;;;3.60;80.60;;;;;;4999803;28;20172;-90
2023/02/25 01:31:30;;;;;;;14.17;13.03;;;3.60;80.40;;;;;;4997867;28;20182;-90
2023/02/25 01:34:01;;;;;;;13.13;12.33;;;3.50;80.60;;;;;;4997321;28;20183;-90
2023/02/25 01:36:28;;;;;;;13.67;12.77;;;3.50;80.60;;;;;;4996872;28;20728;-90
2023/02/25 01:38:55;;;;;;;13.60;12.80;;;3.50;80.40;;;;;;4996564;28;20186;-90
2023/02/25 01:41:21;;;;;;;13.83;12.83;;;3.50;79.80;;;;;;4996576;28;20246;-90
2023/02/25 01:44:07;;;;;;;13.97;12.80;;;3.50;80.00;;;;;;4996544;28;20214;-90
2023/02/25 01:46:34;;;;;;;13.97;12.97;;;3.60;80.20;;;;;;4995920;28;20195;-90
2023/02/25 01:49:01;;;;;;;13.80;12.90;;;3.60;80.70;;;;;;4995966;28;20169;-90
2023/02/25 01:51:27;;;;;;;14.07;13.00;;;3.50;80.70;;;;;;4995798;28;20178;-90
2023/02/25 01:53:55;;;;;;;13.77;12.97;;;3.50;80.50;;;;;;4995809;28;20189;-89
2023/02/25 01:56:24;;;;;;;13.60;12.70;;;3.50;79.90;;;;;;4995667;28;20210;-90
2023/02/25 01:58:51;;;;;;;14.90;13.73;;;3.40;79.30;;;;;;4996483;28;20219;-90
2023/02/25 02:01:21;;;;;;;14.67;13.67;;;3.40;79.30;;;;;;4995789;28;20194;-89
2023/02/25 02:03:50;;;;;;;15.07;13.97;;;3.30;79.50;;;;;;4995614;28;20286;-90
2023/02/25 02:06:26;;;;;;;13.33;12.33;;;3.40;79.30;;;;;;4995465;28;20206;-90
2023/02/25 02:08:53;;;;;;;14.23;13.33;;;3.30;78.90;;;;;;4996355;28;20242;-90
2023/02/25 02:11:19;;;;;;;14.03;13.23;;;3.30;78.80;;;;;;4995550;28;20590;-90
2023/02/25 02:13:49;;;;;;;15.10;14.10;;;3.30;78.60;;;;;;4995437;28;20182;-90
2023/02/25 02:16:32;;;;;;;14.50;13.60;;;3.30;78.40;;;;;;4995621;28;20257;-89
2023/02/25 02:19:08;;;;;;;14.90;13.70;;;3.30;78.50;;;;;;4994368;28;20258;-89
2023/02/25 02:21:53;;;;;;;14.40;13.30;;;3.20;78.80;;;;;;4995244;28;20171;-90
2023/02/25 02:24:27;;;;;;;14.30;13.40;;;3.30;79.30;;;;;;4995324;28;20226;-89
2023/02/25 02:26:59;;;;;;;14.20;13.30;;;3.20;79.70;;;;;;4995207;28;20205;-89
2023/02/25 02:30:03;;;;;;;14.03;13.23;;;3.10;80.00;;;;;;4995088;28;20552;-89
2023/02/25 02:32:51;;;;;;;13.93;13.00;;;3.10;80.20;;;;;;4995384;28;20176;-90
2023/02/25 02:35:22;;;;;;;13.70;12.90;;;3.10;80.60;;;;;;4995882;28;20170;-90
2023/02/25 02:38:07;;;;;;;13.83;12.80;;;2.90;80.90;;;;;;4995678;28;20265;-90
2023/02/25 02:40:48;;;;;;;14.63;13.47;;;2.90;80.70;;;;;;4995059;28;20288;-90
2023/02/25 02:43:46;;;;;;;14.73;13.60;;;2.90;80.60;;;;;;4994926;28;20281;-90
2023/02/25 02:46:44;;;;;;;14.97;13.93;;;2.80;79.90;;;;;;4994770;28;20221;-90
2023/02/25 02:49:20;;;;;;;15.17;14.13;;;2.80;80.20;;;;;;4968667;28;20185;-89
2023/02/25 02:52:00;;;;;;;13.63;12.73;;;2.70;79.50;;;;;;4995665;28;20162;-90
2023/02/25 02:54:31;;;;;;;14.80;13.30;;;2.70;79.20;;;;;;4995304;28;20260;-90
2023/02/25 02:57:01;;;;;;;15.60;14.10;;;2.60;79.40;;;;;;4994614;28;20684;-90
2023/02/25 02:59:28;;;;;;;14.00;12.97;;;2.60;79.40;;;;;;4994881;28;20181;-90
2023/02/25 03:02:05;;;;;;;14.73;13.83;;;2.60;79.40;;;;;;4995034;28;20277;-90
2023/02/25 03:04:35;;;;;;;14.60;13.50;;;2.60;79.20;;;;;;4994509;28;20223;-90
2023/02/25 03:07:05;;;;;;;14.83;13.33;;;2.60;79.60;;;;;;4995025;28;20190;-90
2023/02/25 03:09:49;;;;;;;13.80;12.90;;;2.60;79.80;;;;;;4994483;28;20229;-91
2023/02/25 03:12:15;;;;;;;14.80;13.77;;;2.60;79.90;;;;;;4995260;28;20255;-89
2023/02/25 03:14:40;;;;;;;14.87;13.73;;;2.60;80.00;;;;;;4994911;28;20242;-90
2023/02/25 03:17:25;;;;;;;14.23;13.23;;;2.70;80.00;;;;;;4994400;28;20214;-90
2023/02/25 03:20:05;;;;;;;13.47;12.57;;;2.70;80.20;;;;;;4994389;28;20174;-90
2023/02/25 03:22:35;;;;;;;15.03;13.83;;;2.70;79.90;;;;;;4994912;28;20174;-89
2023/02/25 03:25:18;;;;;;;15.43;13.97;;;2.70;80.10;;;;;;4994778;28;20288;-90
2023/02/25 03:27:46;;;;;;;15.53;13.90;;;2.60;80.80;;;;;;4994616;28;20703;-90
2023/02/25 03:30:17;;;;;;;13.63;12.73;;;2.50;81.30;;;;;;4994044;28;20194;-90
2023/02/25 03:32:55;;;;;;;15.07;12.93;;;2.60;81.80;;;;;;4994208;28;20701;-88
2023/02/25 03:35:22;;;;;;;13.70;12.63;;;2.60;82.00;;;;;;4995607;28;20170;-90
2023/02/25 03:37:50;;;;;;;15.00;13.70;;;2.60;81.80;;;;;;4994004;28;20190;-89
2023/02/25 03:40:19;;;;;;;14.30;13.30;;;2.60;81.80;;;;;;4993735;28;20653;-90
2023/02/25 03:43:06;;;;;;;14.07;12.90;;;2.60;81.80;;;;;;4994509;28;20172;-90
2023/02/25 03:45:34;;;;;;;14.27;13.07;;;2.60;81.80;;;;;;4993652;28;20211;-90
2023/02/25 03:48:01;;;;;;;13.67;12.77;;;2.50;81.80;;;;;;4993992;28;20189;-90
2023/02/25 03:50:32;;;;;;;12.90;11.90;;;2.40;82.30;;;;;;4994491;28;20174;-90
2023/02/25 03:52:57;;;;;;;13.37;12.47;;;2.50;82.30;;;;;;4993707;28;20167;-89
2023/02/25 03:55:23;;;;;;;14.00;13.00;;;2.40;82.40;;;;;;4993887;28;20619;-90
2023/02/25 03:57:50;;;;;;;13.50;12.50;;;2.40;82.60;;;;;;4994160;28;20192;-90
2023/02/25 04:00:26;;;;;;;13.27;12.30;;;2.40;82.70;;;;;;4993513;28;20181;-90
2023/02/25 04:02:52;;;;;;;13.10;12.13;;;2.40;82.90;;;;;;4993606;28;20198;-90
2023/02/25 04:05:19;;;;;;;13.07;12.17;;;2.50;82.90;;;;;;4993883;28;20233;-90
2023/02/25 04:07:45;;;;;;;13.10;11.93;;;2.40;83.10;;;;;;4993826;28;20178;-90
2023/02/25 04:10:13;;;;;;;13.87;12.87;;;2.50;83.20;;;;;;4993404;28;20609;-90
2023/02/25 04:12:39;;;;;;;13.37;12.07;;;2.50;83.00;;;;;;4994183;28;20289;-90
2023/02/25 04:15:06;;;;;;;13.17;12.23;;;2.40;83.00;;;;;;4993392;28;20205;-90
2023/02/25 04:17:33;;;;;;;13.50;12.13;;;2.50;83.10;;;;;;4993166;28;20193;-90
2023/02/25 04:19:59;;;;;;;13.30;12.47;;;2.50;82.90;;;;;;4993374;28;20273;-89
2023/02/25 04:22:25;;;;;;;13.20;12.20;;;2.50;82.80;;;;;;4994033;28;20712;-90
2023/02/25 04:24:51;;;;;;;12.90;11.90;;;2.50;83.20;;;;;;4992945;28;20209;-89
2023/02/25 04:27:16;;;;;;;13.33;12.20;;;2.50;83.30;;;;;;4993856;28;20233;-89
2023/02/25 04:29:43;;;;;;;12.87;11.80;;;2.50;83.30;;;;;;4993277;28;20527;-89
2023/02/25 04:32:09;;;;;;;13.13;12.10;;;2.50;83.30;;;;;;4993663;28;20245;-90
2023/02/25 04:34:36;;;;;;;12.43;11.37;;;2.50;83.40;;;;;;4993350;28;20178;-89
2023/02/25 04:37:03;;;;;;;13.27;12.20;;;2.60;83.40;;;;;;4993624;28;20210;-90
2023/02/25 04:39:30;;;;;;;13.57;12.10;;;2.60;83.40;;;;;;4993017;28;20186;-90
2023/02/25 04:41:56;;;;;;;12.67;11.77;;;2.50;83.30;;;;;;4992767;28;20603;-91
2023/02/25 04:44:22;;;;;;;12.37;10.97;;;2.50;83.50;;;;;;4992671;28;20261;-90
2023/02/25 04:46:50;;;;;;;12.97;11.97;;;2.60;83.20;;;;;;4992801;28;20197;-90
2023/02/25 04:49:20;;;;;;;13.00;11.90;;;2.60;83.20;;;;;;4993005;28;20177;-90
2023/02/25 04:51:48;;;;;;;12.50;11.30;;;2.50;83.30;;;;;;4993171;28;20162;-90
2023/02/25 04:54:14;;;;;;;12.77;11.93;;;2.60;83.30;;;;;;4993063;28;20182;-90
2023/02/25 04:56:40;;;;;;;12.43;11.60;;;2.60;83.30;;;;;;4992750;28;20237;-90
2023/02/25 04:59:06;;;;;;;12.80;11.80;;;2.60;83.40;;;;;;4992724;28;20193;-90
2023/02/25 05:01:32;;;;;;;12.20;11.50;;;2.60;83.30;;;;;;4992849;28;20177;-89
2023/02/25 05:03:59;;;;;;;12.93;11.73;;;2.60;83.20;;;;;;4992635;28;20205;-90
2023/02/25 05:06:26;;;;;;;15.70;11.63;;;2.60;83.20;;;;;;4992625;28;20241;-91
2023/02/25 05:08:52;;;;;;;12.43;11.33;;;2.60;83.10;;;;;;4992653;28;20179;-89
2023/02/25 05:11:18;;;;;;;12.00;10.90;;;2.60;83.00;;;;;;4992471;28;20217;-90
2023/02/25 05:13:44;;;;;;;11.53;10.50;;;2.50;83.20;;;;;;4992652;28;20181;-90
2023/02/25 05:16:12;;;;;;;11.87;11.07;;;2.60;83.00;;;;;;4992401;28;20224;-89
2023/02/25 05:18:43;;;;;;;11.90;11.20;;;2.60;82.80;;;;;;4992480;28;20182;-90
2023/02/25 05:21:11;;;;;;;11.70;10.77;;;2.60;82.80;;;;;;4992453;28;20182;-90
2023/02/25 05:23:48;;;;;;;12.50;11.50;;;2.70;82.70;;;;;;4992448;28;20209;-90
2023/02/25 05:26:15;;;;;;;12.23;11.33;;;2.60;82.40;;;;;;4992507;28;20201;-89
2023/02/25 05:28:42;;;;;;;12.33;11.30;;;2.50;82.70;;;;;;4993304;28;20317;-90
2023/02/25 05:31:10;;;;;;;11.90;10.97;;;2.50;82.90;;;;;;4992321;28;20178;-89
2023/02/25 05:33:37;;;;;;;12.60;10.97;;;2.50;82.90;;;;;;4992343;28;20182;-90
2023/02/25 05:36:08;;;;;;;11.40;10.70;;;2.60;82.70;;;;;;4992377;28;20202;-90
2023/02/25 05:38:35;;;;;;;11.57;10.60;;;2.60;82.80;;;;;;4993240;28;20178;-90
2023/02/25 05:41:02;;;;;;;12.33;11.13;;;2.60;82.70;;;;;;4992872;28;20555;-90
2023/02/25 05:43:27;;;;;;;12.17;11.27;;;2.60;82.60;;;;;;4992658;28;20269;-90
2023/02/25 05:45:55;;;;;;;12.13;11.20;;;2.60;82.40;;;;;;4992689;28;20289;-90
2023/02/25 05:48:21;;;;;;;11.27;10.57;;;2.60;82.30;;;;;;4993044;28;20178;-89
2023/02/25 05:50:49;;;;;;;13.07;11.97;;;2.60;82.20;;;;;;4992314;28;20189;-89
2023/02/25 05:53:16;;;;;;;12.73;11.57;;;2.60;81.90;;;;;;4992579;28;20257;-90
2023/02/25 05:55:42;;;;;;;12.43;11.37;;;2.60;82.00;;;;;;4996095;28;20210;-90
2023/02/25 05:58:08;;;;;;;12.00;11.00;;;2.70;82.00;;;;;;4995759;28;20653;-90
2023/02/25 06:00:34;;;;;;;11.77;10.93;;;2.60;82.00;;;;;;4996168;28;20191;-90
2023/02/25 06:03:00;;;;;;;12.27;10.97;;;2.60;82.20;;;;;;4996064;28;20234;-90
2023/02/25 06:05:25;;;;;;;12.17;11.20;;;2.70;82.00;;;;;;4995953;28;20343;-89
2023/02/25 06:07:51;;;;;;;11.80;11.00;;;2.60;81.90;;;;;;4995791;28;20189;-89
2023/02/25 06:10:17;;;;;;;11.90;10.97;;;2.60;82.20;;;;;;4995695;28;20592;-89
2023/02/25 06:12:42;;;;;;;10.57;9.63;;;2.60;82.30;;;;;;4996500;28;20659;-89
2023/02/25 06:15:08;;;;;;;11.00;10.07;;;2.60;82.40;;;;;;4995598;28;20201;-91
2023/02/25 06:17:34;;;;;;;12.10;11.17;;;2.50;82.30;;;;;;4995584;28;20209;-90
2023/02/25 06:20:00;;;;;;;12.23;11.37;;;2.60;82.30;;;;;;4995280;28;20691;-90
2023/02/25 06:22:25;;;;;;;12.53;11.63;;;2.60;82.40;;;;;;4995292;28;20205;-89
2023/02/25 06:24:51;;;;;;;12.87;11.77;;;2.60;82.40;;;;;;4995242;28;20208;-89
2023/02/25 06:27:17;;;;;;;18.23;11.80;;;2.60;82.70;;;;;;4995209;28;20190;-89
2023/02/25 06:29:47;;;;;;;13.20;12.20;;;2.60;83.00;;;;;;4995112;28;20201;-89
2023/02/25 06:32:13;;;;;;;13.17;12.03;;;2.60;83.40;;;;;;4995361;28;20257;-89
2023/02/25 06:34:38;;;;;;;13.63;12.53;;;2.60;83.70;;;;;;4995149;28;20179;-89
2023/02/25 06:37:05;;;;;;;14.43;13.20;;;2.50;83.90;;;;;;4995209;28;20209;-89
2023/02/25 06:39:31;;;;;;;13.13;12.23;;;2.50;84.30;;;;;;4995480;28;20640;-89
2023/02/25 06:41:56;;;;;;;12.97;11.87;;;2.50;84.80;;;;;;4995191;28;20233;-89
2023/02/25 06:44:22;;;;;;;13.33;12.33;;;2.40;84.80;;;;;;4994913;28;20198;-90
2023/02/25 06:46:54;;;;;;;13.70;12.70;;;2.40;84.90;;;;;;4994755;28;20198;-89
2023/02/25 06:49:20;;;;;;;13.33;12.40;;;2.40;85.00;;;;;;4995133;28;20202;-89
2023/02/25 06:51:47;;;;;;;13.90;12.80;;;2.40;85.00;;;;;;4996095;28;20210;-88
2023/02/25 06:54:13;;;;;;;13.03;12.13;;;2.40;85.00;;;;;;4995060;28;20174;-89
2023/02/25 06:56:39;;;;;;;12.37;11.40;;;2.30;85.00;;;;;;4995314;28;20205;-90
2023/02/25 06:59:04;;;;;;;11.73;10.93;;;2.40;84.80;;;;;;4995614;28;20185;-90
2023/02/25 07:01:30;;;;;;;12.70;11.57;;;2.30;84.80;;;;;;4996019;28;20178;-90
2023/02/25 07:03:55;;;;;;;12.17;11.07;;;2.30;84.50;;;;;;4994797;28;20284;-90
2023/02/25 07:06:21;;;;;;;13.10;11.90;;;2.30;84.40;;;;;;4994472;28;20695;-90
2023/02/25 07:08:47;;;;;;;13.70;12.70;;;2.30;84.00;;;;;;4995325;28;20184;-90
2023/02/25 07:11:17;;;;;;;12.83;11.87;;;2.40;83.50;;;;;;4994560;28;20702;-90
2023/02/25 07:13:43;;;;;;;13.00;12.00;;;2.30;83.30;;;;;;4995062;28;20173;-90
2023/02/25 07:16:10;;;;;;;12.83;11.83;;;2.40;83.10;;;;;;4994327;28;20216;-90
2023/02/25 07:18:36;;;;;;;12.57;11.57;;;2.40;82.70;;;;;;4994446;28;20723;-90
2023/02/25 07:21:01;;;;;;;13.07;12.00;;;2.40;82.20;;;;;;4994343;28;20213;-90
2023/02/25 07:23:27;;;;;;;12.37;11.20;;;2.40;81.90;;;;;;4994269;28;20587;-90
2023/02/25 07:25:52;;;;;;;11.90;11.00;;;2.50;81.80;;;;;;4994398;28;20197;-90
2023/02/25 07:28:18;;;;;;;13.63;12.30;;;2.50;81.40;;;;;;4994308;28;20174;-90
2023/02/25 07:30:44;;;;;;;13.63;12.53;;;2.50;81.10;;;;;;4995352;28;20170;-90
2023/02/25 07:33:10;;;;;;;12.70;11.77;;;2.60;80.90;;;;;;4994428;28;20636;-90
2023/02/25 07:35:35;;;;;;;12.93;12.00;;;2.50;80.70;;;;;;4995066;28;20198;-89
2023/02/25 07:38:01;;;;;;;13.20;12.30;;;2.60;80.10;;;;;;4994598;28;20182;-90
2023/02/25 07:40:26;;;;;;;13.33;12.37;;;2.50;79.80;;;;;;4993961;28;20182;-89
2023/02/25 07:42:52;;;;;;;13.00;12.10;;;2.60;79.80;;;;;;4994320;28;20178;-90
2023/02/25 07:45:18;;;;;;;13.57;12.67;;;2.50;79.60;;;;;;4993746;28;20686;-90
2023/02/25 07:47:43;;;;;;;13.80;12.90;;;2.60;79.60;;;;;;4994130;28;20651;-90
2023/02/25 07:50:10;;;;;;;13.70;12.67;;;2.60;78.90;;;;;;4994279;28;20648;-89
2023/02/25 07:52:36;;;;;;;13.77;12.87;;;2.60;78.60;;;;;;4993774;28;20174;-90
2023/02/25 07:55:05;;;;;;;13.33;12.33;;;2.50;78.80;;;;;;4994178;28;20192;-90
2023/02/25 07:57:31;;;;;;;14.17;13.07;;;2.60;78.80;;;;;;4993776;28;20561;-89
2023/02/25 07:59:57;;;;;;;13.33;12.33;;;2.60;78.70;;;;;;4993588;28;20177;-89
2023/02/25 08:02:23;;;;;;;13.33;12.10;;;2.60;79.00;;;;;;4994245;28;20185;-91
2023/02/25 08:04:49;;;;;;;12.87;12.07;;;2.60;79.40;;;;;;4994153;28;20209;-89
2023/02/25 08:07:15;;;;;;;12.93;11.83;;;2.60;79.10;;;;;;4993403;28;20295;-89
2023/02/25 08:09:40;;;;;;;13.90;12.47;;;2.60;78.60;;;;;;4993688;28;20195;-89
2023/02/25 08:12:06;;;;;;;13.13;12.20;;;2.70;78.60;;;;;;4993265;28;20175;-90
2023/02/25 08:14:32;;;;;;;12.90;11.90;;;2.60;78.60;;;;;;4993798;28;20273;-89
2023/02/25 08:16:57;;;;;;;13.80;12.60;;;2.60;78.50;;;;;;4992329;28;20559;-89
2023/02/25 08:19:23;;;;;;;13.80;12.67;;;2.60;78.20;;;;;;4993979;28;20177;-90
2023/02/25 08:21:48;;;;;;;13.80;12.80;;;2.60;77.80;;;;;;4993425;28;20302;-89
2023/02/25 08:24:14;;;;;;;13.40;12.37;;;2.60;77.60;;;;;;4992968;28;20198;-89
2023/02/25 08:26:40;;;;;;;13.60;12.37;;;2.60;77.70;;;;;;4993377;28;20198;-90
2023/02/25 08:29:06;;;;;;;13.00;12.03;;;2.60;77.70;;;;;;4993067;28;20197;-90
2023/02/25 08:31:32;;;;;;;12.77;11.97;;;2.60;77.60;;;;;;4993441;28;20193;-90
2023/02/25 08:33:58;;;;;;;13.60;12.40;;;2.60;77.40;;;;;;4993293;28;20182;-90
2023/02/25 08:36:27;;;;;;;14.20;13.20;;;2.60;76.90;;;;;;4992777;28;20199;-90
2023/02/25 08:38:56;;;;;;;14.50;12.97;;;2.60;76.50;;;;;;4992955;28;20277;-90
2023/02/25 08:41:22;;;;;;;24.80;14.50;;;2.60;76.20;;;;;;4993815;28;20177;-89
2023/02/25 08:43:50;;;;;;;13.60;12.70;;;2.60;76.20;;;;;;4993215;28;20201;-91
2023/02/25 08:46:16;;;;;;;14.10;13.10;;;2.60;75.90;;;;;;4992831;28;20202;-90
2023/02/25 08:48:42;;;;;;;13.77;12.77;;;2.60;75.70;;;;;;4993105;28;20663;-90
2023/02/25 08:51:09;;;;;;;14.90;13.80;;;2.60;75.50;;;;;;4993168;28;20205;-90
2023/02/25 08:53:37;;;;;;;14.27;13.20;;;2.60;75.70;;;;;;4992763;28;20213;-90
2023/02/25 08:56:05;;;;;;;15.07;13.50;;;2.60;75.20;;;;;;4992599;28;20583;-89
2023/02/25 08:58:31;;;;;;;13.70;12.80;;;2.50;75.20;;;;;;4992612;28;20209;-89
2023/02/25 09:00:57;;;;;;;13.70;12.47;;;2.60;75.50;;;;;;4992859;28;20644;-89
2023/02/25 09:03:22;;;;;;;13.73;12.83;;;2.60;75.30;;;;;;4992756;28;20182;-90
2023/02/25 09:05:55;;;;;;;13.40;12.50;;;2.60;75.30;;;;;;4992488;28;20272;-89
2023/02/25 09:08:21;;;;;;;13.23;12.37;;;2.60;75.20;;;;;;4992764;28;20174;-89
2023/02/25 09:10:47;;;;;;;14.10;13.00;;;2.60;75.20;;;;;;4992609;28;20539;-89
2023/02/25 09:13:12;;;;;;;18.83;12.80;;;2.60;75.00;;;;;;4992843;28;20221;-89
2023/02/25 09:15:39;;;;;;;14.30;13.00;;;2.70;75.00;;;;;;4992252;28;20217;-90
2023/02/25 09:18:04;;;;;;;14.00;13.07;;;2.70;75.10;;;;;;4992462;28;20189;-89
2023/02/25 09:20:30;;;;;;;13.70;12.70;;;2.70;74.40;;;;;;4992501;28;20178;-89
2023/02/25 09:22:56;;;;;;;14.60;13.50;;;2.70;74.10;;;;;;4993339;28;20182;-89
2023/02/25 09:25:22;;;;;;;14.47;13.20;;;2.70;74.30;;;;;;4993237;28;20210;-89
2023/02/25 09:27:48;;;;;;;14.63;13.23;;;2.80;74.40;;;;;;4992470;28;20550;-90
2023/02/25 09:30:14;;;;;;;15.00;13.43;;;2.80;74.10;;;;;;4995743;28;20178;-89
2023/02/25 09:32:39;;;;;;;14.67;13.57;;;2.80;74.00;;;;;;4996231;28;20265;-90
2023/02/25 09:35:06;;;;;;;17.10;14.20;;;2.80;74.00;;;;;;4997086;28;20620;-89
2023/02/25 09:37:32;;;;;;;14.30;13.13;;;2.80;74.10;;;;;;4996379;28;20254;-89
2023/02/25 09:39:58;;;;;;;14.80;13.57;;;2.80;74.20;;;;;;4996273;28;20172;-89
2023/02/25 09:42:39;;;;;;;14.10;13.10;;;2.90;74.20;;;;;;4996201;28;20200;-89
2023/02/25 09:45:14;;;;;;;14.97;13.57;;;3.00;74.40;;;;;;4995936;28;20224;-89
2023/02/25 09:47:57;;;;;;;15.77;14.30;;;3.00;73.90;;;;;;4996793;28;20169;-90
2023/02/25 09:50:31;;;;;;;13.90;12.73;;;3.00;74.30;;;;;;4996418;28;20191;-89
2023/02/25 09:53:09;;;;;;;15.03;13.77;;;3.10;73.30;;;;;;4996536;28;20170;-89
2023/02/25 09:55:40;;;;;;;15.27;13.77;;;3.00;72.20;;;;;;4996215;28;20205;-89
2023/02/25 09:58:10;;;;;;;14.10;13.03;;;3.00;72.20;;;;;;4995743;28;20170;-90
2023/02/25 10:01:03;;;;;;;14.63;13.33;;;3.30;73.10;;;;;;4996162;28;20609;-89
2023/02/25 10:04:05;;;;;;;14.83;13.40;;;3.50;73.60;;;;;;4995614;28;20177;-89
2023/02/25 10:06:36;;;;;;;15.37;14.00;;;3.50;71.90;;;;;;4995447;28;20220;-89
2023/02/25 10:09:08;;;;;;;14.10;13.30;;;3.50;71.60;;;;;;4995929;28;20219;-89
2023/02/25 10:11:37;;;;;;;14.93;13.73;;;3.50;71.10;;;;;;4995729;28;20186;-89
2023/02/25 10:14:34;;;;;;;14.53;13.30;;;3.30;71.60;;;;;;4995598;28;20555;-87
2023/02/25 10:17:29;;;;;;;14.87;13.67;;;3.20;71.60;;;;;;4995583;28;20277;-90
2023/02/25 10:20:22;;;;;;;15.20;13.97;;;3.00;72.20;;;;;;4996234;28;20179;-90
2023/02/25 10:22:58;;;;;;;15.00;13.80;;;3.00;72.40;;;;;;4996257;28;20171;-89
2023/02/25 10:25:29;;;;;;;15.10;13.93;;;3.00;72.70;;;;;;4995987;28;20225;-90
2023/02/25 10:28:09;;;;;;;14.70;13.80;;;3.10;73.20;;;;;;4995183;28;20178;-89
2023/02/25 10:31:05;;;;;;;14.47;13.40;;;3.20;73.10;;;;;;4995144;28;20287;-90
2023/02/25 10:33:37;;;;;;;16.00;14.53;;;3.20;72.60;;;;;;4995296;28;20168;-89
2023/02/25 10:36:16;;;;;;;15.20;14.00;;;3.20;73.00;;;;;;4994922;28;20578;-90
2023/02/25 10:38:46;;;;;;;15.03;13.93;;;3.30;72.80;;;;;;4995049;28;20674;-90
2023/02/25 10:41:13;;;;;;;17.63;14.30;;;3.20;73.30;;;;;;4993904;28;20249;-90
2023/02/25 10:43:38;;;;;;;16.90;14.23;;;3.20;72.30;;;;;;4994889;28;20644;-90
2023/02/25 10:46:15;;;;;;;16.10;14.70;;;3.20;72.20;;;;;;4994815;28;20283;-90
2023/02/25 10:48:46;;;;;;;18.23;14.70;;;3.30;72.30;;;;;;4994780;28;20237;-90
2023/02/25 10:51:14;;;;;;;15.77;14.07;;;3.40;72.30;;;;;;4994770;28;20530;-90
2023/02/25 10:53:56;;;;;;;15.33;14.00;;;3.50;72.80;;;;;;4994853;28;20162;-90
2023/02/25 10:56:25;;;;;;;15.50;13.77;;;3.60;72.20;;;;;;4994646;28;20213;-90
2023/02/25 10:59:04;;;;;;;16.17;14.47;;;3.50;71.50;;;;;;4994963;28;20696;-88
2023/02/25 11:01:41;;;;;;;15.97;14.50;;;3.50;71.80;;;;;;4995876;28;20157;-88
2023/02/25 11:04:13;;;;;;;16.37;14.77;;;3.40;71.30;;;;;;4994531;28;20204;-89
2023/02/25 11:06:41;;;;;;;16.20;14.70;;;3.40;71.50;;;;;;4994671;28;20206;-88
2023/02/25 11:09:29;;;;;;;16.53;15.13;;;3.50;71.90;;;;;;4994432;28;20666;-88
2023/02/25 11:12:08;;;;;;;16.60;15.07;;;3.50;71.60;;;;;;4994477;28;20173;-90
2023/02/25 11:14:36;;;;;;;16.23;14.90;;;3.60;71.80;;;;;;4994683;28;20218;-91
2023/02/25 11:17:19;;;;;;;17.07;15.17;;;3.70;72.10;;;;;;4994016;28;20215;-90
2023/02/25 11:20:01;;;;;;;16.43;15.03;;;3.60;70.90;;;;;;4994450;28;20175;-90
2023/02/25 11:22:41;;;;;;;16.60;14.87;;;3.70;70.10;;;;;;4994274;28;20186;-90
2023/02/25 11:25:15;;;;;;;18.43;16.07;;;3.70;68.70;;;;;;4993902;28;20247;-89
2023/02/25 11:27:44;;;;;;;17.77;16.03;;;3.80;68.50;;;;;;4994277;28;20247;-90
2023/02/25 11:30:12;;;;;;;20.57;16.00;;;3.80;68.40;;;;;;4994120;28;20170;-90
2023/02/25 11:32:43;;;;;;;19.63;17.80;;;3.90;68.10;;;;;;4994532;28;20198;-91
2023/02/25 11:35:18;;;;;;;17.93;16.43;;;3.90;67.00;;;;;;4993794;28;20649;-89
2023/02/25 11:37:46;;;;;;;17.93;16.27;;;4.00;68.00;;;;;;4994094;28;20179;-89
2023/02/25 11:40:28;;;;;;;16.53;15.33;;;4.30;67.60;;;;;;4994928;28;20182;-90
2023/02/25 11:43:15;;;;;;;16.67;15.20;;;4.30;64.40;;;;;;4994635;28;20166;-90
2023/02/25 11:45:53;;;;;;;15.33;14.13;;;4.20;64.30;;;;;;4994881;28;20773;-90
2023/02/25 11:48:28;;;;;;;16.07;14.03;;;4.40;66.10;;;;;;4995184;28;20167;-90
2023/02/25 11:51:18;;;;;;;15.43;14.13;;;4.60;64.70;;;;;;4993740;28;20269;-89
2023/02/25 11:54:35;;;;;;;15.83;14.60;;;4.70;62.90;;;;;;4995105;28;20262;-89
2023/02/25 11:57:15;;;;;;;16.27;14.93;;;4.50;59.90;;;;;;4961824;28;20205;-91
2023/02/25 11:59:53;;;;;;;21.13;15.87;;;4.60;58.70;;;;;;4994222;28;20165;-92
2023/02/25 12:02:33;;;;;;;16.40;15.20;;;4.70;58.70;;;;;;4993971;28;20185;-91
2023/02/25 12:05:08;;;;;;;17.20;14.83;;;4.80;60.50;;;;;;4993608;28;20253;-91
2023/02/25 12:07:52;;;;;;;16.77;15.37;;;5.10;60.40;;;;;;4993342;28;20264;-89
2023/02/25 12:10:43;;;;;;;16.13;14.73;;;5.20;62.20;;;;;;4993903;28;20256;-91
2023/02/25 12:13:27;;;;;;;16.80;15.50;;;5.00;60.30;;;;;;4994350;28;20181;-90
2023/02/25 12:16:39;;;;;;;17.60;16.30;;;4.50;61.00;;;;;;4993647;28;20697;-90
2023/02/25 12:19:26;;;;;;;16.70;15.10;;;4.50;63.00;;;;;;4993174;28;20172;-90
2023/02/25 12:22:16;;;;;;;16.47;14.93;;;4.80;62.00;;;;;;4993346;28;20189;-89
2023/02/25 12:24:57;;;;;;;16.20;14.80;;;4.90;62.00;;;;;;4992977;28;20201;-89
2023/02/25 12:27:22;;;;;;;16.57;15.27;;;5.10;60.60;;;;;;4993261;28;20201;-90
2023/02/25 12:30:25;;;;;;;17.10;15.70;;;5.20;61.30;;;;;;4993280;28;20205;-90
2023/02/25 12:33:25;;;;;;;15.80;14.57;;;5.50;61.20;;;;;;4993056;28;20605;-89
2023/02/25 12:36:15;;;;;;;15.47;14.17;;;5.00;56.70;;;;;;4992873;28;20217;-90
2023/02/25 12:39:08;;;;;;;16.13;14.43;;;5.00;58.30;;;;;;4992848;28;20241;-90
2023/02/25 12:41:44;;;;;;;18.37;14.60;;;5.20;58.50;;;;;;4992749;28;20239;-90
2023/02/25 12:44:22;;;;;;;16.43;15.23;;;5.20;58.60;;;;;;4993676;28;20194;-90
2023/02/25 12:47:13;;;;;;;17.27;15.07;;;5.00;56.90;;;;;;4992723;28;20200;-90
2023/02/25 12:50:09;;;;;;;18.07;15.13;;;4.90;56.90;;;;;;4992886;28;20162;-90
2023/02/25 12:52:47;;;;;;;15.20;14.17;;;4.90;58.50;;;;;;4992586;28;20173;-89
2023/02/25 12:55:28;;;;;;;15.70;14.60;;;5.00;59.60;;;;;;4992683;28;20173;-90
2023/02/25 12:58:20;;;;;;;15.13;13.90;;;5.00;58.30;;;;;;4992759;28;20611;-91
2023/02/25 13:01:03;;;;;;;15.10;13.90;;;4.90;59.30;;;;;;4992570;28;20169;-90